createdAt,value
2022-12-03T00:04:02.854Z,46.60
2022-12-03T00:09:05.731Z,47.65
2022-12-03T00:14:08.419Z,45.97
2022-12-03T00:19:11.169Z,47.47
2022-12-03T00:24:13.647Z,45.05
2022-12-03T00:29:16.113Z,49.10
2022-12-03T00:34:18.879Z,45.22
2022-12-03T00:39:21.349Z,50.70
2022-12-03T00:44:23.901Z,48.05
2022-12-03T00:49:26.435Z,46.28
2022-12-03T00:54:32.068Z,48.00
2022-12-03T00:59:34.931Z,48.80
2022-12-03T01:04:37.732Z,47.13
2022-12-03T01:09:42.973Z,48.00
2022-12-03T01:14:45.616Z,46.35
2022-12-03T01:19:48.736Z,47.72
2022-12-03T01:24:51.981Z,46.15
2022-12-03T01:29:54.666Z,53.95
2022-12-03T01:34:57.449Z,49.40
2022-12-03T01:40:00.069Z,49.15
2022-12-03T01:45:06.502Z,45.67
2022-12-03T01:50:16.025Z,46.17
2022-12-03T01:55:19.904Z,47.03
2022-12-03T02:00:23.712Z,43.78
2022-12-03T02:05:30.960Z,47.67
2022-12-03T02:10:35.031Z,43.97
2022-12-03T02:15:40.916Z,47.78
2022-12-03T02:20:58.332Z,48.20
2022-12-03T02:26:00.848Z,51.20
2022-12-03T02:31:05.443Z,45.42
2022-12-03T02:36:08.411Z,48.15
2022-12-03T02:41:33.571Z,50.55
2022-12-03T02:46:36.378Z,48.35
2022-12-03T02:51:39.068Z,49.40
2022-12-03T02:56:41.854Z,47.80
2022-12-03T03:01:44.402Z,51.00
2022-12-03T03:06:47.008Z,47.80
2022-12-03T03:11:49.484Z,50.47
2022-12-03T03:16:56.350Z,44.45
2022-12-03T03:21:59.113Z,51.88
2022-12-03T03:27:01.758Z,47.40
2022-12-03T03:32:04.667Z,50.35
2022-12-03T03:37:07.242Z,48.47
2022-12-03T03:42:09.791Z,45.33
2022-12-03T03:47:12.511Z,47.75
2022-12-03T03:52:15.623Z,54.10
2022-12-03T03:57:18.180Z,47.38
2022-12-03T04:02:21.559Z,44.78
2022-12-03T04:07:24.426Z,50.35
2022-12-03T04:12:45.791Z,47.40
2022-12-03T04:18:11.444Z,44.10
2022-12-03T04:23:16.958Z,51.22
2022-12-03T04:28:37.838Z,45.88
2022-12-03T04:33:58.881Z,48.40
2022-12-03T04:39:01.391Z,45.92
2022-12-03T04:44:22.633Z,47.90
2022-12-03T04:49:25.128Z,47.53
2022-12-03T04:54:28.242Z,48.55
2022-12-03T04:59:30.782Z,47.10
2022-12-03T05:04:33.858Z,51.15
2022-12-03T05:09:36.363Z,47.90
2022-12-03T05:14:38.885Z,51.42
2022-12-03T05:20:00.187Z,47.28
2022-12-03T05:25:03.081Z,52.78
2022-12-03T05:30:05.976Z,51.45
2022-12-03T05:35:09.590Z,53.67
2022-12-03T05:40:12.632Z,51.45
2022-12-03T05:45:15.241Z,52.83
2022-12-03T05:50:17.887Z,52.78
2022-12-03T05:55:20.828Z,57.92
2022-12-03T06:00:27.890Z,57.88
2022-12-03T06:05:30.469Z,53.83
2022-12-03T06:10:33.014Z,60.78
2022-12-03T06:15:40.413Z,52.85
2022-12-03T06:20:46.416Z,55.28
2022-12-03T06:25:49.007Z,59.30
2022-12-03T06:30:51.591Z,57.78
2022-12-03T06:35:54.096Z,59.92
2022-12-03T06:40:56.692Z,53.58
2022-12-03T06:45:59.288Z,60.40
2022-12-03T06:51:01.856Z,62.10
2022-12-03T06:56:04.490Z,60.08
2022-12-03T07:01:08.509Z,64.20
2022-12-03T07:06:11.294Z,59.50
2022-12-03T07:11:31.995Z,59.72
2022-12-03T07:16:35.767Z,61.45
2022-12-03T07:21:39.202Z,60.63
2022-12-03T07:26:41.846Z,59.50
2022-12-03T07:31:44.482Z,56.90
2022-12-03T07:36:47.053Z,63.50
2022-12-03T07:41:49.871Z,58.35
2022-12-03T07:46:52.500Z,60.90
2022-12-03T07:51:57.021Z,62.95
2022-12-03T07:57:01.671Z,57.53
2022-12-03T08:02:04.777Z,57.30
2022-12-03T08:07:07.329Z,81.25
2022-12-03T08:12:17.498Z,64.72
2022-12-03T08:17:21.782Z,59.13
2022-12-03T08:22:34.029Z,57.08
2022-12-03T08:27:36.537Z,57.55
2022-12-03T08:32:39.235Z,60.25
2022-12-03T08:37:43.549Z,56.05
2022-12-03T08:42:46.318Z,60.75
2022-12-03T08:47:50.762Z,61.80
2022-12-03T08:52:55.110Z,57.03
2022-12-03T08:57:58.580Z,62.67
2022-12-03T09:03:01.380Z,61.42
2022-12-03T09:08:04.246Z,59.75
2022-12-03T09:13:07.539Z,55.58
2022-12-03T09:18:10.642Z,57.30
2022-12-03T09:23:13.725Z,55.47
2022-12-03T09:28:16.464Z,59.17
2022-12-03T09:33:19.137Z,75.85
2022-12-03T09:38:21.976Z,57.22
2022-12-03T09:43:33.460Z,61.30
2022-12-03T09:48:48.161Z,60.50
2022-12-03T09:53:50.791Z,65.05
2022-12-03T09:58:56.053Z,62.67
2022-12-03T10:03:58.921Z,63.85
2022-12-03T10:09:01.769Z,58.28
2022-12-03T10:14:04.711Z,59.47
2022-12-03T10:19:09.848Z,59.65
2022-12-03T10:24:26.124Z,67.97
2022-12-03T10:29:34.079Z,61.17
2022-12-03T10:34:40.694Z,62.33
2022-12-03T10:39:55.941Z,55.45
2022-12-03T10:45:16.103Z,55.70
2022-12-03T10:50:19.737Z,57.65
2022-12-03T10:55:22.454Z,55.75
2022-12-03T11:00:25.260Z,54.65
2022-12-03T11:05:28.578Z,52.67
2022-12-03T11:10:31.180Z,59.58
2022-12-03T11:15:44.598Z,57.28
2022-12-03T11:20:47.205Z,57.85
2022-12-03T11:25:50.897Z,54.58
2022-12-03T11:30:53.850Z,56.05
2022-12-03T11:36:05.831Z,62.30
2022-12-03T11:41:19.325Z,56.40
2022-12-03T11:46:37.012Z,55.50
2022-12-03T11:51:44.185Z,54.92
2022-12-03T11:56:49.166Z,58.25
2022-12-03T12:01:51.764Z,59.72
2022-12-03T12:06:54.494Z,55.08
2022-12-03T12:12:17.157Z,61.83
2022-12-03T12:17:36.495Z,51.73
2022-12-03T12:22:39.564Z,55.90
2022-12-03T12:27:51.133Z,56.65
2022-12-03T12:32:57.989Z,51.63
2022-12-03T12:38:11.482Z,52.45
2022-12-03T12:43:36.025Z,52.95
2022-12-03T12:48:39.196Z,66.88
2022-12-03T12:53:45.336Z,63.70
2022-12-03T12:58:48.035Z,58.83
2022-12-03T13:03:51.581Z,49.72
2022-12-03T13:08:57.170Z,55.00
2022-12-03T13:14:01.132Z,53.15
2022-12-03T13:19:14.038Z,54.30
2022-12-03T13:29:19.865Z,54.58
2022-12-03T13:34:23.977Z,59.80
2022-12-03T13:39:36.907Z,62.50
2022-12-03T13:44:46.618Z,55.30
2022-12-03T13:49:53.874Z,49.65
2022-12-03T13:54:58.390Z,51.47
2022-12-03T14:00:00.888Z,51.78
2022-12-03T14:05:03.595Z,53.50
2022-12-03T14:10:07.477Z,49.95
2022-12-03T14:15:13.188Z,52.03
2022-12-03T14:20:16.069Z,50.13
2022-12-03T14:25:18.789Z,52.05
2022-12-03T14:30:22.297Z,54.45
2022-12-03T14:35:24.965Z,47.60
2022-12-03T14:40:27.717Z,48.92
2022-12-03T14:45:30.762Z,42.80
2022-12-03T14:50:33.569Z,48.72
2022-12-03T14:55:36.087Z,43.70
2022-12-03T15:00:38.624Z,45.00
2022-12-03T15:05:41.250Z,41.42
2022-12-03T15:10:43.897Z,47.72
2022-12-03T15:15:46.500Z,48.17
2022-12-03T15:20:49.873Z,42.03
2022-12-03T15:25:52.416Z,45.05
2022-12-03T15:30:55.168Z,39.58
2022-12-03T15:35:58.074Z,42.53
2022-12-03T15:41:21.206Z,43.95
2022-12-03T15:46:24.177Z,46.88
2022-12-03T15:51:27.021Z,54.33
2022-12-03T15:56:29.656Z,44.58
2022-12-03T16:01:32.585Z,43.97
2022-12-03T16:06:35.294Z,44.03
2022-12-03T16:11:38.265Z,44.22
2022-12-03T16:16:41.399Z,46.85
2022-12-03T16:21:43.981Z,54.20
2022-12-03T16:26:46.828Z,47.00
2022-12-03T16:31:49.491Z,52.67
2022-12-03T16:36:55.647Z,50.65
2022-12-03T16:41:58.407Z,51.40
2022-12-03T16:47:01.658Z,50.72
2022-12-03T16:52:04.329Z,45.45
2022-12-03T16:57:07.129Z,52.95
2022-12-03T17:02:10.968Z,53.88
2022-12-03T17:07:13.631Z,51.65
2022-12-03T17:12:16.481Z,52.95
2022-12-03T17:17:19.101Z,55.25
2022-12-03T17:22:22.044Z,52.83
2022-12-03T17:27:25.387Z,47.75
2022-12-03T17:32:28.642Z,54.97
2022-12-03T17:37:31.267Z,50.15
2022-12-03T17:42:33.888Z,52.33
2022-12-03T17:47:36.516Z,51.25
2022-12-03T17:52:39.148Z,51.60
2022-12-03T17:57:42.446Z,48.67
2022-12-03T18:02:45.297Z,49.83
2022-12-03T18:07:48.142Z,49.08
2022-12-03T18:12:50.878Z,51.25
2022-12-03T18:17:53.575Z,54.15
2022-12-03T18:22:59.490Z,51.88
2022-12-03T18:28:02.938Z,53.72
2022-12-03T18:33:05.648Z,53.10
2022-12-03T18:38:12.191Z,54.40
2022-12-03T18:43:15.780Z,56.03
2022-12-03T18:48:19.264Z,54.47
2022-12-03T18:53:23.943Z,57.33
2022-12-03T18:58:26.609Z,57.75
2022-12-03T19:03:29.417Z,62.40
2022-12-03T19:08:33.374Z,63.38
2022-12-03T19:13:36.086Z,59.60
2022-12-03T19:18:41.745Z,62.13
2022-12-03T19:24:15.985Z,56.40
2022-12-03T19:29:11.015Z,59.13
2022-12-03T19:34:13.694Z,52.53
2022-12-03T19:39:16.406Z,52.70
2022-12-03T19:44:19.330Z,55.72
2022-12-03T19:49:22.544Z,58.55
2022-12-03T19:54:25.306Z,55.80
2022-12-03T19:59:27.912Z,56.15
2022-12-03T20:04:30.456Z,56.70
2022-12-03T20:09:33.064Z,57.03
2022-12-03T20:14:35.633Z,60.22
2022-12-03T20:19:38.358Z,58.15
2022-12-03T20:24:41.049Z,62.35
2022-12-03T20:29:43.770Z,57.35
2022-12-03T20:34:46.574Z,57.90
2022-12-03T20:39:55.674Z,60.72
2022-12-03T20:44:58.550Z,55.42
2022-12-03T20:50:01.562Z,58.22
2022-12-03T20:55:04.328Z,57.03
2022-12-03T21:00:07.227Z,54.42
2022-12-03T21:05:09.908Z,56.97
2022-12-03T21:10:32.509Z,59.97
2022-12-03T21:15:35.104Z,60.00
2022-12-03T21:20:45.513Z,58.13
2022-12-03T21:25:48.108Z,58.80
2022-12-03T21:30:50.733Z,58.03
2022-12-03T21:35:54.875Z,63.92
2022-12-03T21:40:57.954Z,63.78
2022-12-03T21:47:12.752Z,62.42
2022-12-03T21:51:31.557Z,62.97
2022-12-03T21:56:34.334Z,63.03
2022-12-03T22:01:37.057Z,63.88
2022-12-03T22:06:40.262Z,62.60
2022-12-03T22:11:42.942Z,63.92
2022-12-03T22:16:45.967Z,63.30
2022-12-03T22:21:50.749Z,60.40
2022-12-03T22:26:55.062Z,63.85
2022-12-03T22:31:57.899Z,58.72
2022-12-03T22:37:00.522Z,62.33
2022-12-03T22:42:03.346Z,62.22
2022-12-03T22:47:06.153Z,60.72
2022-12-03T22:52:08.827Z,65.88
2022-12-03T22:57:11.771Z,68.57
2022-12-03T23:02:14.507Z,67.38
2022-12-03T23:07:19.880Z,62.28
2022-12-03T23:12:22.725Z,70.63
2022-12-03T23:17:33.033Z,64.47
2022-12-03T23:22:35.809Z,66.85
2022-12-03T23:27:38.672Z,66.93
2022-12-03T23:32:42.760Z,66.80
2022-12-03T23:37:45.535Z,68.20
2022-12-03T23:42:48.369Z,73.30
2022-12-03T23:47:56.580Z,71.78
2022-12-03T23:53:03.843Z,72.65
2022-12-03T23:58:07.497Z,71.75
